JA010C RJFM-RJFM

Flight info

Callsign JA010C
Flight time 0h 22m
Altitude 0
Route +LCL
Aircraft SR22

Departure

Time 2026-05-01 12:49
Airport Miyazaki Airport (RJFM)

Arrival

Time 2026-05-01 13:11
Airport Miyazaki Airport (RJFM)
Time Latitude Longitude Altitude Speed Heading
2026-05-01 12:38 31.87882 131.44257 30 ft 0 kts 266°
2026-05-01 12:39 31.87870 131.44236 30 ft 7 kts 169°
2026-05-01 12:39 31.87839 131.44324 29 ft 19 kts 86°
2026-05-01 12:40 31.87852 131.44513 30 ft 27 kts 85°
2026-05-01 12:40 31.87867 131.44708 30 ft 20 kts 86°
2026-05-01 12:40 31.87875 131.44893 29 ft 23 kts 98°
2026-05-01 12:40 31.87824 131.45025 29 ft 12 kts 116°
2026-05-01 12:41 31.87817 131.45043 28 ft 0 kts 114°
2026-05-01 12:41 31.87809 131.45062 28 ft 0 kts 113°
2026-05-01 12:47 31.87783 131.45089 27 ft 12 kts 170°
2026-05-01 12:48 31.87728 131.45050 28 ft 0 kts 263°
2026-05-01 12:48 31.87725 131.45017 26 ft 25 kts 266°
2026-05-01 12:49 31.87692 131.44575 44 ft 74 kts 268°
2026-05-01 12:49 31.87626 131.43986 279 ft 72 kts 263°
2026-05-01 12:49 31.87550 131.43367 538 ft 74 kts 264°
2026-05-01 12:49 31.87516 131.42757 773 ft 81 kts 263°
2026-05-01 12:50 31.87486 131.42074 994 ft 86 kts 264°
2026-05-01 12:50 31.87375 131.41363 1274 ft 91 kts 257°
2026-05-01 12:50 31.86730 131.41072 1378 ft 132 kts 172°
2026-05-01 12:50 31.85897 131.41452 1690 ft 127 kts 172°
2026-05-01 12:51 31.85074 131.41823 1794 ft 136 kts 141°
2026-05-01 12:51 31.84888 131.42896 1860 ft 132 kts 84°
2026-05-01 12:51 31.84996 131.44901 1654 ft 117 kts 78°
2026-05-01 12:52 31.85052 131.45880 1703 ft 125 kts 82°
2026-05-01 12:52 31.84592 131.47821 2031 ft 129 kts 153°
2026-05-01 12:52 31.83797 131.47974 2090 ft 109 kts 214°
2026-05-01 12:53 31.83915 131.47072 2074 ft 102 kts
2026-05-01 12:53 31.84460 131.47777 2139 ft 137 kts 60°
2026-05-01 12:53 31.84461 131.48883 2223 ft 134 kts 111°
2026-05-01 12:54 31.83847 131.49641 2201 ft 126 kts 163°
2026-05-01 12:54 31.82863 131.48965 1953 ft 93 kts 289°
2026-05-01 12:54 31.83243 131.48329 1929 ft 102 kts 327°
2026-05-01 12:55 31.84536 131.49176 2201 ft 133 kts 66°
2026-05-01 12:55 31.84196 131.50154 2251 ft 137 kts 156°
2026-05-01 12:55 31.83470 131.49940 2135 ft 105 kts 256°
2026-05-01 12:56 31.83618 131.49169 1996 ft 101 kts 311°
2026-05-01 12:56 31.84277 131.48955 1850 ft 107 kts
2026-05-01 12:56 31.84814 131.49639 1556 ft 127 kts 65°
2026-05-01 12:56 31.84617 131.50565 1509 ft 119 kts 149°
2026-05-01 12:57 31.83971 131.50602 1468 ft 93 kts 234°
2026-05-01 12:57 31.84053 131.49292 1651 ft 102 kts 340°
2026-05-01 12:57 31.84731 131.49693 1697 ft 123 kts 37°
2026-05-01 12:58 31.85079 131.50647 1796 ft 134 kts 79°
2026-05-01 12:58 31.84579 131.51483 1889 ft 130 kts 174°
2026-05-01 12:58 31.83880 131.51160 1919 ft 104 kts 251°
2026-05-01 12:59 31.84614 131.50208 2003 ft 119 kts
2026-05-01 12:59 31.85101 131.50974 1930 ft 130 kts 82°
2026-05-01 12:59 31.84109 131.51390 1545 ft 78 kts 268°
2026-05-01 13:00 31.85161 131.50946 1062 ft 112 kts 347°
2026-05-01 13:00 31.85687 131.50912 1115 ft 110 kts 347°
2026-05-01 13:01 31.87338 131.50665 933 ft 104 kts 335°
2026-05-01 13:01 31.87762 131.50385 890 ft 101 kts 306°
2026-05-01 13:01 31.87989 131.48854 417 ft 94 kts 265°
2026-05-01 13:02 31.87947 131.48108 358 ft 91 kts 266°
2026-05-01 13:07 31.83298 131.47134 1659 ft 140 kts 178°
2026-05-01 13:07 31.82613 131.46601 1552 ft 130 kts 266°
2026-05-01 13:07 31.82999 131.45658 1531 ft 138 kts 322°
2026-05-01 13:08 31.83875 131.45908 1495 ft 164 kts 54°
2026-05-01 13:08 31.83960 131.47216 1563 ft 150 kts 93°
2026-05-01 13:08 31.83917 131.48400 1396 ft 146 kts 85°
2026-05-01 13:08 31.84331 131.49326 1136 ft 122 kts 18°
2026-05-01 13:09 31.85107 131.49438 905 ft 112 kts 354°
2026-05-01 13:09 31.85824 131.49525 881 ft 96 kts 352°
2026-05-01 13:09 31.86449 131.49616 883 ft 91 kts 356°
2026-05-01 13:09 31.87065 131.49693 809 ft 87 kts 354°
2026-05-01 13:10 31.87566 131.49498 723 ft 72 kts 302°
2026-05-01 13:10 31.87858 131.48940 449 ft 87 kts 290°
2026-05-01 13:10 31.87963 131.48271 322 ft 78 kts 260°
2026-05-01 13:10 31.87911 131.47657 259 ft 72 kts 264°
2026-05-01 13:11 31.87871 131.47060 172 ft 77 kts 264°
2026-05-01 13:11 31.87824 131.46435 93 ft 73 kts 266°
2026-05-01 13:11 31.87783 131.45888 27 ft 59 kts 266°
2026-05-01 13:11 31.87761 131.45517 26 ft 41 kts 263°
2026-05-01 13:12 31.87739 131.45194 26 ft 39 kts 267°
2026-05-01 13:12 31.87717 131.44891 26 ft 36 kts 264°
2026-05-01 13:12 31.87700 131.44611 25 ft 31 kts 285°
2026-05-01 13:12 31.87818 131.44557 29 ft 15 kts 342°
2026-05-01 13:13 31.87847 131.44442 30 ft 18 kts 267°
2026-05-01 13:13 31.87850 131.44307 30 ft 13 kts 309°
2026-05-01 13:13 31.87859 131.44283 30 ft 0 kts 250°